Time;durP1;ratioP1;P1;durP2;ratioP2;P2;SDS_P1;SDS_P2;PMS_P1;PMS_P2;Temp;Humidity;BMP_temperature;BMP_pressure;BME280_temperature;BME280_humidity;BME280_pressure;Samples;Min_cycle;Max_cycle;Signal;HPM_P1;HPM_P2
2023/12/29 00:02:05;;;;;;;12.48;3.50;;;10.50;99.90;;;;;;5065806;28;20048;-76
2023/12/29 00:04:31;;;;;;;9.50;2.83;;;10.60;99.90;;;;;;5078313;28;20040;-75
2023/12/29 00:06:59;;;;;;;10.90;3.33;;;10.60;99.90;;;;;;5076641;28;20458;-75
2023/12/29 00:09:25;;;;;;;12.35;2.90;;;10.60;99.90;;;;;;5074580;28;20127;-76
2023/12/29 00:11:51;;;;;;;12.77;3.25;;;10.50;99.90;;;;;;5062088;27;20135;-75
2023/12/29 00:14:17;;;;;;;12.13;2.97;;;10.50;99.90;;;;;;5091929;28;20537;-76
2023/12/29 00:16:44;;;;;;;13.52;2.92;;;10.50;99.90;;;;;;5084210;28;20510;-75
2023/12/29 00:19:10;;;;;;;10.23;2.47;;;10.50;99.90;;;;;;5057970;28;20414;-75
2023/12/29 00:21:37;;;;;;;10.95;2.70;;;10.40;99.90;;;;;;5071525;28;20104;-76
2023/12/29 00:24:04;;;;;;;10.20;2.95;;;10.40;99.90;;;;;;5076436;28;20044;-76
2023/12/29 00:26:29;;;;;;;11.20;2.95;;;10.40;99.90;;;;;;5075966;28;20089;-76
2023/12/29 00:28:58;;;;;;;15.73;3.08;;;10.40;99.90;;;;;;5064067;28;20083;-76
2023/12/29 00:31:24;;;;;;;9.75;2.63;;;10.40;99.90;;;;;;5075683;28;20050;-75
2023/12/29 00:33:51;;;;;;;12.77;2.80;;;10.40;99.90;;;;;;5076485;28;20120;-76
2023/12/29 00:36:18;;;;;;;9.18;2.28;;;10.40;99.90;;;;;;5065184;28;20048;-75
2023/12/29 00:38:44;;;;;;;9.90;2.70;;;10.40;99.90;;;;;;5072069;28;20067;-75
2023/12/29 00:41:10;;;;;;;10.52;3.00;;;10.40;99.90;;;;;;5070633;28;20048;-75
2023/12/29 00:43:36;;;;;;;11.32;2.40;;;10.40;99.90;;;;;;5076007;28;20040;-75
2023/12/29 00:46:03;;;;;;;13.88;3.53;;;10.30;99.90;;;;;;5079441;28;20114;-75
2023/12/29 00:48:29;;;;;;;11.35;2.78;;;10.30;99.90;;;;;;5079771;28;20075;-75
2023/12/29 00:51:00;;;;;;;10.32;3.13;;;10.30;99.90;;;;;;5063744;28;20040;-75
2023/12/29 00:53:26;;;;;;;12.80;3.08;;;10.30;99.90;;;;;;5070282;27;20122;-76
2023/12/29 00:55:52;;;;;;;14.02;3.65;;;10.30;99.90;;;;;;5053479;27;20047;-76
2023/12/29 00:58:17;;;;;;;10.77;3.00;;;10.20;99.90;;;;;;5072234;28;20429;-75
2023/12/29 01:00:43;;;;;;;12.15;3.53;;;10.20;99.90;;;;;;5058335;28;20104;-76
2023/12/29 01:03:11;;;;;;;12.70;3.38;;;10.10;99.90;;;;;;5078878;28;20048;-76
2023/12/29 01:05:37;;;;;;;13.90;3.58;;;10.10;99.90;;;;;;5078242;27;20405;-76
2023/12/29 01:08:03;;;;;;;14.90;3.22;;;10.10;99.90;;;;;;5056217;28;20064;-76
2023/12/29 01:10:29;;;;;;;13.85;4.10;;;10.10;99.90;;;;;;5074411;28;20131;-75
2023/12/29 01:12:54;;;;;;;15.48;3.80;;;10.00;99.90;;;;;;5050859;28;20039;-76
2023/12/29 01:15:20;;;;;;;15.05;3.45;;;10.00;99.90;;;;;;5076623;28;20436;-75
2023/12/29 01:17:46;;;;;;;15.07;3.90;;;10.00;99.90;;;;;;5070287;28;20048;-75
2023/12/29 01:20:12;;;;;;;16.95;4.20;;;10.00;99.90;;;;;;5072753;28;20044;-76
2023/12/29 01:22:38;;;;;;;12.30;3.60;;;10.00;99.90;;;;;;5059272;28;20113;-76
2023/12/29 01:25:04;;;;;;;14.38;4.05;;;10.00;99.90;;;;;;5070586;28;20444;-75
2023/12/29 01:27:30;;;;;;;15.18;4.03;;;10.00;99.90;;;;;;5065019;28;20048;-75
2023/12/29 01:29:56;;;;;;;15.32;4.40;;;10.00;99.90;;;;;;5070142;28;20502;-76
2023/12/29 01:32:22;;;;;;;15.57;4.53;;;10.00;99.90;;;;;;5071730;28;20046;-75
2023/12/29 01:34:47;;;;;;;15.85;4.95;;;10.00;99.90;;;;;;5069543;28;20044;-75
2023/12/29 01:37:13;;;;;;;18.02;4.60;;;10.00;99.90;;;;;;5060995;28;20039;-76
2023/12/29 01:39:40;;;;;;;13.07;4.05;;;10.00;99.90;;;;;;5071162;28;20101;-76
2023/12/29 01:42:06;;;;;;;19.70;4.75;;;10.00;99.90;;;;;;5046291;28;20043;-76
2023/12/29 01:44:32;;;;;;;17.88;4.00;;;10.00;99.90;;;;;;5076676;28;20413;-75
2023/12/29 01:47:00;;;;;;;13.93;4.15;;;10.10;99.90;;;;;;5069524;28;20130;-75
2023/12/29 01:49:29;;;;;;;17.08;4.05;;;10.00;99.90;;;;;;5070545;28;20867;-76
2023/12/29 01:51:57;;;;;;;15.75;4.85;;;10.10;99.90;;;;;;5066280;28;20044;-75
2023/12/29 01:54:26;;;;;;;12.45;4.05;;;10.10;99.90;;;;;;5055293;28;20466;-76
2023/12/29 01:56:55;;;;;;;17.08;4.20;;;10.10;99.90;;;;;;5070115;28;20368;-76
2023/12/29 01:59:21;;;;;;;16.55;4.43;;;10.00;99.90;;;;;;5068531;28;20527;-76
2023/12/29 02:01:50;;;;;;;14.38;4.30;;;10.00;99.90;;;;;;5063355;28;20051;-75
2023/12/29 02:04:18;;;;;;;16.40;5.07;;;9.90;99.90;;;;;;5069708;28;20101;-75
2023/12/29 02:06:43;;;;;;;13.85;4.38;;;9.80;99.90;;;;;;5070440;28;20043;-76
2023/12/29 02:09:12;;;;;;;14.90;4.60;;;9.80;99.90;;;;;;5067743;28;20125;-75
2023/12/29 02:11:38;;;;;;;14.75;4.93;;;9.80;99.90;;;;;;5055669;28;20279;-75
2023/12/29 02:14:04;;;;;;;13.70;4.60;;;9.80;99.90;;;;;;5080307;28;20291;-76
2023/12/29 02:16:38;;;;;;;15.40;5.30;;;9.80;99.90;;;;;;5070336;28;20040;-74
2023/12/29 02:19:14;;;;;;;21.88;5.28;;;9.80;99.90;;;;;;5073410;28;20690;-74
2023/12/29 02:21:43;;;;;;;19.95;5.35;;;9.80;99.90;;;;;;5069356;28;20068;-74
2023/12/29 02:24:09;;;;;;;18.13;5.47;;;9.80;99.90;;;;;;5073811;28;20368;-73
2023/12/29 02:26:36;;;;;;;17.70;5.10;;;9.80;99.90;;;;;;5073369;28;20087;-74
2023/12/29 02:29:08;;;;;;;15.55;5.03;;;9.80;99.90;;;;;;5061021;28;20135;-75
2023/12/29 02:31:37;;;;;;;18.33;5.07;;;9.80;99.90;;;;;;5076556;28;20035;-75
2023/12/29 02:34:06;;;;;;;20.17;4.53;;;9.90;99.90;;;;;;5074119;28;20397;-75
2023/12/29 02:36:32;;;;;;;20.25;6.38;;;9.90;99.90;;;;;;5067044;28;20122;-75
2023/12/29 02:38:59;;;;;;;16.17;5.60;;;9.90;99.90;;;;;;5055082;28;20040;-74
2023/12/29 02:41:24;;;;;;;19.63;4.97;;;9.80;99.90;;;;;;5081445;28;20486;-75
2023/12/29 02:43:50;;;;;;;21.75;5.65;;;9.80;99.90;;;;;;5070645;28;20382;-75
2023/12/29 02:46:18;;;;;;;18.15;5.45;;;9.80;99.90;;;;;;5067577;28;20048;-76
2023/12/29 02:48:44;;;;;;;23.70;6.70;;;9.70;99.90;;;;;;5063709;28;20558;-76
2023/12/29 02:51:10;;;;;;;16.60;4.22;;;9.70;99.90;;;;;;5084009;28;20052;-75
2023/12/29 02:53:35;;;;;;;12.65;3.72;;;9.70;99.90;;;;;;5050658;28;20139;-75
2023/12/29 02:56:01;;;;;;;9.23;2.80;;;9.50;99.90;;;;;;5079529;28;20039;-76
2023/12/29 02:58:27;;;;;;;11.05;2.40;;;9.40;99.90;;;;;;5066983;28;20051;-76
2023/12/29 03:00:53;;;;;;;9.27;2.55;;;9.20;99.90;;;;;;5056644;28;20509;-76
2023/12/29 03:03:19;;;;;;;13.50;3.47;;;9.10;99.90;;;;;;5050102;28;20127;-75
2023/12/29 03:05:45;;;;;;;17.90;4.45;;;9.00;99.90;;;;;;5068616;28;20130;-75
2023/12/29 03:08:10;;;;;;;17.20;4.78;;;9.00;99.90;;;;;;5069470;28;20505;-76
2023/12/29 03:10:36;;;;;;;19.90;5.63;;;9.00;99.90;;;;;;5069859;28;20051;-76
2023/12/29 03:13:04;;;;;;;17.10;5.60;;;9.10;99.90;;;;;;5070733;28;20032;-75
2023/12/29 03:15:29;;;;;;;14.50;5.15;;;9.20;99.90;;;;;;5070427;28;20063;-76
2023/12/29 03:17:55;;;;;;;21.08;5.93;;;9.20;99.90;;;;;;5083907;28;20043;-75
2023/12/29 03:20:21;;;;;;;20.17;5.70;;;9.30;99.90;;;;;;5069842;28;20051;-76
2023/12/29 03:22:47;;;;;;;19.05;5.40;;;9.30;99.90;;;;;;5056952;28;20066;-75
2023/12/29 03:25:12;;;;;;;23.05;6.05;;;9.30;99.90;;;;;;5084496;28;20489;-74
2023/12/29 03:27:38;;;;;;;20.55;6.38;;;9.40;99.90;;;;;;5068863;28;20075;-76
2023/12/29 03:30:04;;;;;;;16.42;5.45;;;9.50;99.90;;;;;;5083136;28;20055;-75
2023/12/29 03:32:30;;;;;;;19.20;5.72;;;9.50;99.90;;;;;;5067580;28;20062;-75
2023/12/29 03:34:56;;;;;;;19.23;5.32;;;9.50;99.90;;;;;;5081262;28;20123;-75
2023/12/29 03:37:21;;;;;;;19.42;5.63;;;9.50;99.90;;;;;;5073793;28;20502;-76
2023/12/29 03:39:47;;;;;;;16.55;5.72;;;9.60;99.90;;;;;;5086051;27;20089;-76
2023/12/29 03:42:13;;;;;;;17.70;5.32;;;9.60;99.90;;;;;;5075938;28;20044;-75
2023/12/29 03:44:39;;;;;;;18.17;5.22;;;9.60;99.90;;;;;;5056950;28;20032;-76
2023/12/29 03:47:05;;;;;;;18.13;5.53;;;9.50;99.90;;;;;;5070128;28;20049;-75
2023/12/29 03:49:30;;;;;;;19.75;4.75;;;9.60;99.90;;;;;;5058669;28;20036;-75
2023/12/29 03:51:56;;;;;;;18.23;5.28;;;9.60;99.90;;;;;;5069303;27;20039;-75
2023/12/29 03:54:22;;;;;;;22.58;5.28;;;9.50;99.90;;;;;;5077833;28;20097;-76
2023/12/29 03:56:48;;;;;;;16.90;5.15;;;9.50;99.90;;;;;;5073955;28;20048;-76
2023/12/29 03:59:13;;;;;;;14.65;4.38;;;9.50;99.90;;;;;;5073856;28;20047;-75
2023/12/29 04:01:39;;;;;;;20.70;5.40;;;9.40;99.90;;;;;;5064112;27;20036;-76
2023/12/29 04:04:05;;;;;;;19.83;5.55;;;9.50;99.90;;;;;;5058286;28;20036;-76
2023/12/29 04:06:31;;;;;;;18.77;5.55;;;9.50;99.90;;;;;;5072987;28;20051;-76
2023/12/29 04:08:57;;;;;;;24.65;6.18;;;9.50;99.90;;;;;;5059688;28;20058;-75
2023/12/29 04:11:23;;;;;;;17.15;5.13;;;9.40;99.90;;;;;;5074510;28;20048;-76
2023/12/29 04:13:48;;;;;;;20.20;5.55;;;9.40;99.90;;;;;;5070574;28;20286;-76
2023/12/29 04:16:15;;;;;;;20.35;5.70;;;9.40;99.90;;;;;;5076564;28;20047;-76
2023/12/29 04:18:41;;;;;;;20.90;5.30;;;9.30;99.90;;;;;;5056190;28;20553;-77
2023/12/29 04:21:08;;;;;;;18.70;4.88;;;9.30;99.90;;;;;;5055947;28;21295;-78
2023/12/29 04:23:34;;;;;;;20.58;4.80;;;9.30;99.90;;;;;;5055269;28;20088;-77
2023/12/29 04:26:00;;;;;;;25.77;5.80;;;9.20;99.90;;;;;;5074843;27;20390;-77
2023/12/29 04:28:29;;;;;;;21.27;5.35;;;9.30;99.90;;;;;;5073161;28;20083;-76
2023/12/29 04:30:55;;;;;;;22.35;5.78;;;9.30;99.90;;;;;;5075725;28;20047;-76
2023/12/29 04:33:20;;;;;;;23.23;5.53;;;9.30;99.90;;;;;;5073419;28;20040;-76
2023/12/29 04:35:46;;;;;;;21.13;5.35;;;9.30;99.90;;;;;;5056390;28;20032;-76
2023/12/29 04:38:12;;;;;;;25.50;6.05;;;9.30;99.90;;;;;;5074470;28;20085;-76
2023/12/29 04:40:38;;;;;;;23.30;5.60;;;9.30;99.90;;;;;;5055751;28;20154;-76
2023/12/29 04:43:04;;;;;;;25.33;5.57;;;9.30;99.90;;;;;;5051922;28;20072;-75
2023/12/29 04:45:29;;;;;;;24.42;5.80;;;9.30;99.90;;;;;;5078357;28;20656;-75
2023/12/29 04:47:58;;;;;;;22.42;5.13;;;9.30;99.90;;;;;;5054066;28;20122;-75
2023/12/29 04:50:24;;;;;;;23.30;5.50;;;9.30;99.90;;;;;;5072635;28;20135;-78
2023/12/29 04:52:50;;;;;;;23.08;5.72;;;9.30;99.90;;;;;;5054193;28;20247;-77
2023/12/29 04:55:16;;;;;;;23.90;5.55;;;9.30;99.90;;;;;;5073281;28;20048;-76
2023/12/29 04:57:41;;;;;;;27.15;5.15;;;9.30;99.90;;;;;;5062152;28;20126;-76
2023/12/29 05:00:07;;;;;;;19.95;4.97;;;9.30;99.90;;;;;;5072229;27;20057;-76
2023/12/29 05:02:34;;;;;;;20.60;4.97;;;9.40;99.90;;;;;;5071804;28;20490;-77
2023/12/29 05:05:03;;;;;;;23.85;5.53;;;9.40;99.90;;;;;;5071932;28;20049;-77
2023/12/29 05:07:28;;;;;;;27.70;6.38;;;9.30;99.90;;;;;;5057819;28;20127;-76
2023/12/29 05:09:54;;;;;;;22.65;4.47;;;9.30;99.90;;;;;;5073597;28;20123;-75
2023/12/29 05:12:20;;;;;;;22.45;5.00;;;9.30;99.90;;;;;;5072005;28;20737;-75
2023/12/29 05:14:46;;;;;;;23.30;4.85;;;9.30;99.90;;;;;;5068988;28;20101;-76
2023/12/29 05:17:11;;;;;;;20.98;5.55;;;9.30;99.90;;;;;;5071181;28;20101;-76
2023/12/29 05:19:37;;;;;;;21.73;4.80;;;9.30;99.90;;;;;;5072089;28;20048;-75
2023/12/29 05:22:03;;;;;;;22.67;5.47;;;9.30;99.90;;;;;;5053143;28;20953;-76
2023/12/29 05:24:29;;;;;;;19.42;4.72;;;9.40;99.90;;;;;;5073178;28;20052;-76
2023/12/29 05:26:55;;;;;;;20.52;5.45;;;9.40;99.90;;;;;;5051456;28;20036;-76
2023/12/29 05:29:24;;;;;;;21.17;4.75;;;9.40;99.90;;;;;;5074240;28;20036;-76
2023/12/29 05:31:49;;;;;;;23.48;5.10;;;9.40;99.90;;;;;;5069803;28;20115;-77
2023/12/29 05:34:15;;;;;;;19.67;5.07;;;9.40;99.90;;;;;;5069761;28;20616;-77
2023/12/29 05:36:42;;;;;;;21.83;5.28;;;9.40;99.90;;;;;;5054977;28;20044;-76
2023/12/29 05:39:07;;;;;;;22.90;4.95;;;9.40;99.90;;;;;;5057247;28;20048;-77
2023/12/29 05:41:33;;;;;;;22.92;4.95;;;9.40;99.90;;;;;;5051847;28;20643;-77
2023/12/29 05:44:00;;;;;;;23.05;5.18;;;9.40;99.90;;;;;;5071853;28;20048;-77
2023/12/29 05:46:26;;;;;;;26.65;4.82;;;9.40;99.90;;;;;;5066622;28;20055;-78
2023/12/29 05:48:52;;;;;;;22.80;4.45;;;9.40;99.90;;;;;;5074314;28;20437;-76
2023/12/29 05:51:18;;;;;;;17.67;4.10;;;9.40;99.90;;;;;;5070710;28;20659;-77
2023/12/29 05:53:44;;;;;;;16.08;3.63;;;9.30;99.90;;;;;;5070435;28;20042;-77
2023/12/29 05:56:13;;;;;;;19.45;4.30;;;9.30;99.90;;;;;;5075181;28;20627;-77
2023/12/29 05:58:41;;;;;;;20.40;4.95;;;9.20;99.90;;;;;;5068414;28;20542;-77
2023/12/29 06:01:07;;;;;;;17.63;4.00;;;9.20;99.90;;;;;;5069372;28;20498;-77
2023/12/29 06:03:33;;;;;;;21.50;4.63;;;9.20;99.90;;;;;;5065192;28;20108;-75
2023/12/29 06:05:59;;;;;;;19.48;4.65;;;9.20;99.90;;;;;;5069801;28;20344;-76
2023/12/29 06:08:25;;;;;;;19.65;4.22;;;9.20;99.90;;;;;;5052457;28;20055;-76
2023/12/29 06:10:51;;;;;;;22.45;4.80;;;9.20;99.90;;;;;;5053096;28;20095;-76
2023/12/29 06:13:17;;;;;;;21.52;4.45;;;9.30;99.90;;;;;;5070036;28;20095;-76
2023/12/29 06:15:43;;;;;;;23.13;5.03;;;9.20;99.90;;;;;;5052338;28;20040;-76
2023/12/29 06:18:09;;;;;;;22.38;4.93;;;9.20;99.90;;;;;;5054135;28;20124;-76
2023/12/29 06:20:34;;;;;;;22.88;5.10;;;9.20;99.90;;;;;;5059690;28;20067;-76
2023/12/29 06:23:00;;;;;;;23.17;6.03;;;9.20;99.90;;;;;;5051347;28;20040;-76
2023/12/29 06:25:26;;;;;;;22.60;4.97;;;9.20;99.90;;;;;;5053360;28;20063;-76
2023/12/29 06:27:53;;;;;;;23.83;5.47;;;9.20;99.90;;;;;;5056506;28;20047;-76
2023/12/29 06:30:19;;;;;;;29.15;5.88;;;9.30;99.90;;;;;;5051735;28;20173;-75
2023/12/29 06:32:45;;;;;;;23.70;5.85;;;9.30;99.90;;;;;;5052040;28;20130;-77
2023/12/29 06:35:10;;;;;;;24.30;7.03;;;9.30;99.90;;;;;;5057052;28;20505;-76
2023/12/29 06:37:38;;;;;;;28.10;5.93;;;9.40;99.90;;;;;;5069813;28;20043;-76
2023/12/29 06:40:06;;;;;;;27.35;5.75;;;9.40;99.90;;;;;;5070251;28;20851;-77
2023/12/29 06:42:32;;;;;;;26.98;6.22;;;9.40;99.90;;;;;;5069775;28;20138;-77
2023/12/29 06:44:58;;;;;;;28.88;5.85;;;9.50;99.90;;;;;;5053685;28;20430;-76
2023/12/29 06:47:23;;;;;;;26.73;6.40;;;9.50;99.90;;;;;;5069320;28;20036;-77
2023/12/29 06:49:50;;;;;;;30.92;6.25;;;9.50;99.90;;;;;;5072622;28;20134;-76
2023/12/29 06:52:16;;;;;;;29.75;6.88;;;9.50;99.90;;;;;;5068155;28;20124;-77
2023/12/29 06:54:42;;;;;;;25.50;6.38;;;9.50;99.90;;;;;;5074001;28;20119;-77
2023/12/29 06:57:08;;;;;;;30.55;5.88;;;9.50;99.90;;;;;;5052169;28;20069;-77
2023/12/29 06:59:34;;;;;;;32.70;7.30;;;9.50;99.90;;;;;;5069735;28;20055;-77
2023/12/29 07:02:00;;;;;;;27.65;6.30;;;9.50;99.90;;;;;;5063124;28;20105;-77
2023/12/29 07:04:26;;;;;;;29.35;6.53;;;9.40;99.90;;;;;;5065801;28;20043;-77
2023/12/29 07:06:51;;;;;;;29.70;6.80;;;9.40;99.90;;;;;;5069417;28;20048;-77
2023/12/29 07:09:17;;;;;;;31.55;7.38;;;9.40;99.90;;;;;;5075805;28;20040;-77
2023/12/29 07:11:48;;;;;;;32.92;6.72;;;9.30;99.90;;;;;;5068742;28;20044;-77
2023/12/29 07:14:14;;;;;;;35.90;7.35;;;9.40;99.90;;;;;;5063864;28;20093;-77
2023/12/29 07:16:40;;;;;;;30.63;6.70;;;9.40;99.90;;;;;;5055696;28;20040;-76
2023/12/29 07:19:06;;;;;;;35.35;7.05;;;9.30;99.90;;;;;;5080600;28;20382;-78
2023/12/29 07:21:31;;;;;;;29.90;6.53;;;9.40;99.90;;;;;;5052775;28;20397;-75
2023/12/29 07:23:57;;;;;;;31.48;6.97;;;9.40;99.90;;;;;;5067230;28;20043;-75
2023/12/29 07:26:23;;;;;;;34.17;6.40;;;9.40;99.90;;;;;;5075707;28;20387;-76
2023/12/29 07:28:53;;;;;;;43.38;7.40;;;9.40;99.90;;;;;;5056118;28;20051;-75
2023/12/29 07:31:21;;;;;;;39.10;7.95;;;9.40;99.90;;;;;;5059502;28;20036;-76
2023/12/29 07:33:46;;;;;;;38.38;8.00;;;9.40;99.90;;;;;;5064507;28;20494;-76
2023/12/29 07:36:12;;;;;;;32.90;6.53;;;9.30;99.90;;;;;;5082878;28;20040;-75
2023/12/29 07:38:38;;;;;;;36.10;6.85;;;9.30;99.90;;;;;;5069323;28;20058;-75
2023/12/29 07:41:04;;;;;;;43.97;8.45;;;9.20;99.90;;;;;;5058629;28;20040;-75
2023/12/29 07:43:30;;;;;;;48.28;8.63;;;9.20;99.90;;;;;;5083903;28;20047;-75
2023/12/29 07:45:56;;;;;;;49.72;9.00;;;9.10;99.90;;;;;;5081293;28;20052;-75
2023/12/29 07:48:22;;;;;;;36.58;7.13;;;9.10;99.90;;;;;;5072310;28;20047;-75
2023/12/29 07:50:48;;;;;;;44.05;7.68;;;9.10;99.90;;;;;;5079971;28;20096;-75
2023/12/29 07:53:14;;;;;;;33.65;6.68;;;9.10;99.90;;;;;;5088403;28;20040;-75
2023/12/29 07:55:40;;;;;;;40.65;7.65;;;9.10;99.90;;;;;;5063896;28;20064;-75
2023/12/29 07:58:06;;;;;;;34.70;6.70;;;9.20;99.90;;;;;;5075550;28;20506;-75
2023/12/29 08:00:33;;;;;;;34.88;6.82;;;9.10;99.90;;;;;;5054401;28;20048;-75
2023/12/29 08:02:59;;;;;;;33.58;7.35;;;9.20;99.90;;;;;;5061879;28;20487;-75
2023/12/29 08:05:28;;;;;;;32.95;6.93;;;9.20;99.90;;;;;;5070957;28;20055;-75
2023/12/29 08:07:54;;;;;;;38.40;7.57;;;9.20;99.90;;;;;;5067991;28;20137;-75
2023/12/29 08:10:20;;;;;;;34.10;6.93;;;9.20;99.90;;;;;;5068887;28;20561;-75
2023/12/29 08:12:46;;;;;;;31.95;7.05;;;9.20;99.90;;;;;;5084525;28;20134;-75
2023/12/29 08:15:12;;;;;;;29.85;6.70;;;9.20;99.90;;;;;;5078037;28;20038;-75
2023/12/29 08:17:38;;;;;;;32.00;6.35;;;9.30;99.90;;;;;;5061186;28;20047;-75
2023/12/29 08:20:05;;;;;;;25.67;6.15;;;9.30;99.90;;;;;;5084874;28;20060;-76
2023/12/29 08:22:32;;;;;;;25.40;5.35;;;9.30;99.90;;;;;;5072377;28;20044;-75
2023/12/29 08:24:58;;;;;;;32.20;6.22;;;9.30;99.90;;;;;;5060295;28;20652;-75
2023/12/29 08:27:28;;;;;;;32.08;7.15;;;9.30;99.90;;;;;;5073473;28;20423;-75
2023/12/29 08:29:54;;;;;;;33.92;6.93;;;9.30;99.90;;;;;;5073117;28;20089;-76
2023/12/29 08:32:21;;;;;;;28.25;5.78;;;9.30;99.90;;;;;;5080613;28;20040;-75
2023/12/29 08:34:46;;;;;;;30.05;6.53;;;9.30;99.90;;;;;;5072437;28;20048;-75
2023/12/29 08:37:15;;;;;;;29.63;5.97;;;9.30;99.90;;;;;;5070997;28;20042;-75
2023/12/29 08:39:41;;;;;;;29.10;6.30;;;9.30;99.90;;;;;;5067734;28;20040;-75
2023/12/29 08:42:07;;;;;;;27.05;6.00;;;9.30;99.90;;;;;;5056792;28;20050;-75
2023/12/29 08:44:32;;;;;;;30.42;5.90;;;9.30;99.90;;;;;;5071305;28;20482;-76
2023/12/29 08:46:58;;;;;;;23.27;5.57;;;9.30;99.90;;;;;;5062522;28;20312;-75
2023/12/29 08:49:24;;;;;;;28.30;5.30;;;9.30;99.90;;;;;;5073115;28;20032;-75
2023/12/29 08:51:50;;;;;;;26.30;6.22;;;9.30;99.90;;;;;;5085500;28;20096;-75
2023/12/29 08:54:15;;;;;;;23.02;5.63;;;9.30;99.90;;;;;;5082232;28;20059;-76
2023/12/29 08:56:41;;;;;;;30.80;6.15;;;9.40;99.90;;;;;;5071100;28;20044;-76
2023/12/29 08:59:07;;;;;;;25.48;5.93;;;9.40;99.90;;;;;;5060255;28;20044;-76
2023/12/29 09:01:33;;;;;;;22.65;6.25;;;9.40;99.90;;;;;;5054638;28;20059;-76
2023/12/29 09:04:00;;;;;;;26.70;5.90;;;9.40;99.90;;;;;;5062730;28;20048;-75
2023/12/29 09:06:26;;;;;;;20.60;4.53;;;9.40;99.90;;;;;;5078400;28;20051;-75
2023/12/29 09:08:52;;;;;;;22.02;4.93;;;9.40;99.90;;;;;;5069932;28;20419;-75
2023/12/29 09:11:20;;;;;;;21.33;4.80;;;9.40;99.90;;;;;;5070380;27;20069;-75
2023/12/29 09:13:46;;;;;;;25.95;5.20;;;9.40;99.90;;;;;;5084836;28;20074;-76
2023/12/29 09:16:12;;;;;;;26.15;5.97;;;9.40;99.90;;;;;;5083616;27;20130;-75
2023/12/29 09:18:38;;;;;;;22.45;5.60;;;9.40;99.90;;;;;;5083133;28;20046;-75
2023/12/29 09:21:04;;;;;;;22.40;5.43;;;9.40;99.90;;;;;;5067213;28;20035;-75
2023/12/29 09:23:29;;;;;;;27.88;6.47;;;9.40;99.90;;;;;;5064572;27;20068;-76
2023/12/29 09:25:58;;;;;;;21.65;5.72;;;9.50;99.90;;;;;;5068806;28;20090;-76
2023/12/29 09:28:24;;;;;;;23.25;5.95;;;9.50;99.90;;;;;;5068482;28;20125;-77
2023/12/29 09:30:49;;;;;;;21.95;5.50;;;9.40;99.90;;;;;;5084435;27;20068;-76
2023/12/29 09:33:15;;;;;;;24.17;5.75;;;9.50;99.90;;;;;;5081486;28;20512;-77
2023/12/29 09:35:41;;;;;;;27.10;5.75;;;9.50;99.90;;;;;;5067751;28;20031;-76
2023/12/29 09:38:09;;;;;;;21.75;5.45;;;9.50;99.90;;;;;;5078009;28;20062;-76
2023/12/29 09:40:36;;;;;;;25.92;5.03;;;9.50;99.90;;;;;;5060221;28;20450;-76
2023/12/29 09:43:04;;;;;;;20.67;5.63;;;9.50;99.90;;;;;;5056576;28;20090;-76
2023/12/29 09:45:32;;;;;;;20.95;5.60;;;9.50;99.90;;;;;;5071187;28;20055;-76
2023/12/29 09:48:00;;;;;;;19.70;4.55;;;9.50;99.90;;;;;;5063064;28;20077;-76
2023/12/29 09:50:27;;;;;;;23.13;5.57;;;9.60;99.90;;;;;;5077078;28;20036;-76
2023/12/29 09:52:53;;;;;;;20.50;4.28;;;9.60;99.90;;;;;;5073790;28;20059;-77
2023/12/29 09:55:20;;;;;;;25.95;5.63;;;9.60;99.90;;;;;;5060895;28;20039;-76
2023/12/29 09:57:48;;;;;;;20.33;5.22;;;9.60;99.90;;;;;;5084793;27;20524;-77
2023/12/29 10:00:16;;;;;;;21.50;4.35;;;9.60;99.90;;;;;;5074043;28;20040;-76
2023/12/29 10:02:42;;;;;;;21.70;4.53;;;9.60;99.90;;;;;;5069691;28;20050;-76
2023/12/29 10:05:09;;;;;;;19.08;4.65;;;9.60;99.90;;;;;;5079750;28;20130;-77
2023/12/29 10:07:39;;;;;;;18.42;4.20;;;9.70;99.90;;;;;;5082369;28;20132;-77
2023/12/29 10:10:06;;;;;;;23.63;5.13;;;9.70;99.90;;;;;;5067619;28;20081;-77
2023/12/29 10:12:33;;;;;;;19.77;4.45;;;9.70;99.90;;;;;;5085588;28;20736;-77
2023/12/29 10:15:09;;;;;;;22.15;4.60;;;9.70;99.90;;;;;;5079252;28;20619;-77
2023/12/29 10:18:02;;;;;;;19.60;4.72;;;9.70;99.90;;;;;;5062661;28;20052;-77
2023/12/29 10:20:59;;;;;;;18.42;4.60;;;9.80;99.90;;;;;;5079444;28;20044;-77
2023/12/29 10:23:40;;;;;;;21.67;4.65;;;9.80;99.90;;;;;;5065350;27;20497;-77
2023/12/29 10:26:10;;;;;;;19.35;4.43;;;9.80;99.90;;;;;;5064681;28;20055;-77
2023/12/29 10:28:35;;;;;;;20.38;4.38;;;9.70;99.90;;;;;;5081765;28;20047;-77
2023/12/29 10:31:02;;;;;;;19.40;5.07;;;9.80;99.90;;;;;;5053343;28;20871;-77
2023/12/29 10:33:30;;;;;;;20.15;4.40;;;9.80;99.90;;;;;;5062381;28;20042;-77
2023/12/29 10:36:07;;;;;;;17.67;4.03;;;9.80;99.90;;;;;;5081297;28;20043;-76
2023/12/29 10:38:33;;;;;;;19.05;3.92;;;9.80;99.90;;;;;;5078629;28;20498;-75
2023/12/29 10:41:13;;;;;;;16.65;4.10;;;9.80;99.90;;;;;;5076569;28;20457;-76
2023/12/29 10:43:40;;;;;;;16.05;3.38;;;9.80;99.90;;;;;;5067670;28;20047;-76
2023/12/29 10:46:11;;;;;;;15.93;3.60;;;9.90;99.90;;;;;;5056132;28;20036;-76
2023/12/29 10:48:37;;;;;;;14.93;3.30;;;9.90;99.90;;;;;;5071270;28;20116;-76
2023/12/29 10:51:04;;;;;;;14.68;2.80;;;10.00;99.90;;;;;;5070463;28;20039;-76
2023/12/29 10:53:39;;;;;;;14.40;3.20;;;9.90;99.90;;;;;;5071962;28;20039;-76
2023/12/29 10:56:10;;;;;;;16.95;3.58;;;9.90;99.90;;;;;;5070404;28;20338;-77
2023/12/29 10:58:37;;;;;;;18.88;3.58;;;9.90;99.90;;;;;;5080262;28;20146;-76
2023/12/29 11:01:14;;;;;;;15.80;3.30;;;9.90;99.90;;;;;;5070020;28;20044;-76
2023/12/29 11:03:40;;;;;;;14.45;3.17;;;9.80;99.90;;;;;;5070847;28;20063;-76
2023/12/29 11:06:06;;;;;;;19.27;4.25;;;9.80;99.90;;;;;;5062540;28;20510;-76
2023/12/29 11:08:35;;;;;;;19.27;3.88;;;9.80;99.90;;;;;;5067060;28;20123;-76
2023/12/29 11:11:02;;;;;;;14.70;3.28;;;9.80;99.90;;;;;;5051757;28;20042;-76
2023/12/29 11:13:30;;;;;;;20.05;4.30;;;9.80;99.90;;;;;;5056355;28;20046;-76
2023/12/29 11:15:56;;;;;;;21.08;5.07;;;9.80;99.90;;;;;;5072534;28;20040;-76
2023/12/29 11:18:23;;;;;;;20.60;4.60;;;9.70;99.90;;;;;;5060065;28;20047;-76
2023/12/29 11:20:49;;;;;;;14.52;3.30;;;9.80;99.90;;;;;;5072775;28;20079;-76
2023/12/29 11:23:16;;;;;;;16.05;3.25;;;9.90;99.90;;;;;;5070435;28;20083;-75
2023/12/29 11:25:48;;;;;;;19.63;4.07;;;9.90;99.90;;;;;;5058125;28;20052;-76
2023/12/29 11:28:14;;;;;;;17.70;3.60;;;10.00;99.90;;;;;;5063071;28;20056;-75
2023/12/29 11:30:40;;;;;;;12.25;3.00;;;10.10;99.90;;;;;;5073610;28;20044;-76
2023/12/29 11:33:16;;;;;;;21.58;4.05;;;10.10;99.90;;;;;;5067792;28;20411;-76
2023/12/29 11:35:48;;;;;;;18.42;3.85;;;10.10;99.90;;;;;;5061592;28;20521;-75
2023/12/29 11:38:28;;;;;;;17.33;4.20;;;10.10;99.90;;;;;;5070614;28;20070;-77
2023/12/29 11:40:59;;;;;;;21.48;4.65;;;10.20;99.90;;;;;;5065004;28;20723;-76
2023/12/29 11:43:26;;;;;;;15.07;3.70;;;10.20;99.90;;;;;;5055584;28;20085;-76
2023/12/29 11:45:51;;;;;;;15.05;3.30;;;10.20;99.90;;;;;;5068473;28;20047;-76
2023/12/29 11:48:58;;;;;;;16.73;3.15;;;10.20;99.90;;;;;;5068310;28;20409;-76
2023/12/29 11:51:35;;;;;;;17.50;3.75;;;10.20;99.90;;;;;;5076941;28;20088;-76
2023/12/29 11:54:02;;;;;;;16.13;3.85;;;10.20;99.90;;;;;;5068439;28;20101;-76
2023/12/29 11:56:33;;;;;;;14.25;3.65;;;10.10;99.90;;;;;;5053404;28;20032;-75
2023/12/29 11:59:20;;;;;;;15.82;3.05;;;10.00;99.90;;;;;;5068678;28;20055;-76
2023/12/29 12:01:51;;;;;;;14.43;2.97;;;9.90;99.90;;;;;;5064575;28;20052;-75
2023/12/29 12:04:36;;;;;;;12.63;2.78;;;9.90;99.90;;;;;;5080364;28;20039;-75
2023/12/29 12:07:04;;;;;;;11.40;2.35;;;9.80;99.90;;;;;;5081480;28;20076;-75
2023/12/29 12:09:30;;;;;;;11.07;2.25;;;9.80;99.90;;;;;;5073632;28;20036;-75
2023/12/29 12:11:57;;;;;;;9.90;2.30;;;9.80;99.90;;;;;;5062966;28;20481;-75
2023/12/29 12:14:44;;;;;;;9.93;2.40;;;9.80;99.90;;;;;;5062357;28;20054;-75
2023/12/29 12:17:11;;;;;;;11.60;2.70;;;9.80;99.90;;;;;;5075168;28;20174;-76
2023/12/29 12:19:37;;;;;;;13.13;2.92;;;9.70;99.90;;;;;;5077072;28;20558;-74
2023/12/29 12:22:06;;;;;;;10.45;2.85;;;9.70;99.90;;;;;;5072622;28;20048;-74
2023/12/29 12:24:35;;;;;;;13.10;3.13;;;9.70;99.90;;;;;;5072586;28;20040;-75
2023/12/29 12:27:02;;;;;;;11.80;2.60;;;9.70;99.90;;;;;;5059336;28;20043;-75
2023/12/29 12:29:28;;;;;;;14.32;3.35;;;9.70;99.90;;;;;;5071686;28;20495;-75
2023/12/29 12:31:55;;;;;;;13.93;2.97;;;9.70;99.90;;;;;;5064821;28;20176;-75
2023/12/29 12:34:22;;;;;;;14.77;3.25;;;9.70;99.90;;;;;;5097150;27;20035;-75
2023/12/29 12:36:50;;;;;;;16.75;3.55;;;9.80;99.90;;;;;;5093619;28;20036;-75
2023/12/29 12:39:16;;;;;;;14.93;3.78;;;9.80;99.90;;;;;;5086902;28;20564;-76
2023/12/29 12:41:41;;;;;;;18.90;3.83;;;9.80;99.90;;;;;;5083314;28;20056;-76
2023/12/29 12:44:11;;;;;;;13.82;3.47;;;9.80;99.90;;;;;;5080453;28;20048;-76
2023/12/29 12:46:43;;;;;;;16.98;3.40;;;9.90;99.90;;;;;;5087609;28;20047;-75